createdAt,value
2017-10-13T00:00:48.229Z,1017.74
2017-10-13T00:01:48.662Z,1017.77
2017-10-13T00:02:49.090Z,1017.80
2017-10-13T00:03:49.515Z,1017.79
2017-10-13T00:04:49.946Z,1017.78
2017-10-13T00:05:50.374Z,1017.77
2017-10-13T00:06:50.802Z,1017.79
2017-10-13T00:07:51.237Z,1017.79
2017-10-13T00:08:51.660Z,1017.73
2017-10-13T00:09:52.086Z,1017.80
2017-10-13T00:10:52.517Z,1017.83
2017-10-13T00:11:52.945Z,1017.86
2017-10-13T00:12:53.374Z,1017.84
2017-10-13T00:13:53.799Z,1017.88
2017-10-13T00:14:54.229Z,1017.90
2017-10-13T00:15:54.658Z,1017.94
2017-10-13T00:16:55.089Z,1017.97
2017-10-13T00:17:55.517Z,1017.93
2017-10-13T00:18:55.945Z,1018.03
2017-10-13T00:19:56.373Z,1017.98
2017-10-13T00:20:56.801Z,1018.00
2017-10-13T00:21:57.229Z,1018.02
2017-10-13T00:22:57.664Z,1018.04
2017-10-13T00:23:58.087Z,1018.00
2017-10-13T00:24:58.515Z,1017.96
2017-10-13T00:25:58.946Z,1017.96
2017-10-13T00:26:59.374Z,1018.00
2017-10-13T00:27:59.803Z,1017.96
2017-10-13T00:29:00.230Z,1017.93
2017-10-13T00:30:00.659Z,1017.89
2017-10-13T00:31:01.092Z,1017.85
2017-10-13T00:32:01.519Z,1017.84
2017-10-13T00:33:01.945Z,1017.84
2017-10-13T00:34:02.379Z,1017.74
2017-10-13T00:35:02.805Z,1017.81
2017-10-13T00:36:03.232Z,1017.74
2017-10-13T00:37:03.660Z,1017.73
2017-10-13T00:38:04.089Z,1017.71
2017-10-13T00:39:04.517Z,1017.64
2017-10-13T00:40:04.945Z,1017.65
2017-10-13T00:41:05.375Z,1017.67
2017-10-13T00:42:05.807Z,1017.63
2017-10-13T00:43:06.240Z,1017.70
2017-10-13T00:44:06.660Z,1017.66
2017-10-13T00:45:07.091Z,1017.66
2017-10-13T00:46:07.518Z,1017.71
2017-10-13T00:47:07.946Z,1017.69
2017-10-13T00:48:08.375Z,1017.72
2017-10-13T00:49:08.803Z,1017.76
2017-10-13T00:50:09.233Z,1017.77
2017-10-13T00:51:09.663Z,1017.74
2017-10-13T00:52:10.088Z,1017.80
2017-10-13T00:53:10.523Z,1017.85
2017-10-13T00:54:10.950Z,1017.86
2017-10-13T00:55:11.382Z,1017.84
2017-10-13T00:56:11.804Z,1017.84
2017-10-13T00:57:12.234Z,1017.84
2017-10-13T00:58:12.661Z,1017.78
2017-10-13T00:59:13.091Z,1017.88
2017-10-13T01:00:13.521Z,1017.84
2017-10-13T01:01:13.949Z,1017.76
2017-10-13T01:02:14.386Z,1017.80
2017-10-13T01:03:14.810Z,1017.78
2017-10-13T01:04:15.243Z,1017.83
2017-10-13T01:05:15.679Z,1017.83
2017-10-13T01:06:16.092Z,1017.84
2017-10-13T01:07:16.524Z,1017.82
2017-10-13T01:08:16.950Z,1017.85
2017-10-13T01:09:17.379Z,1017.85
2017-10-13T01:10:17.808Z,1017.90
2017-10-13T01:11:18.235Z,1017.84
2017-10-13T01:12:18.662Z,1017.90
2017-10-13T01:13:19.094Z,1017.93
2017-10-13T01:14:19.521Z,1017.93
2017-10-13T01:15:19.951Z,1017.95
2017-10-13T01:16:20.378Z,1017.93
2017-10-13T01:17:20.807Z,1017.92
2017-10-13T01:18:21.237Z,1017.91
2017-10-13T01:19:21.665Z,1017.97
2017-10-13T01:20:22.092Z,1017.99
2017-10-13T01:21:22.523Z,1018.03
2017-10-13T01:22:22.949Z,1018.03
2017-10-13T01:23:23.377Z,1018.02
2017-10-13T01:24:23.808Z,1018.08
2017-10-13T01:25:24.235Z,1018.06
2017-10-13T01:26:24.668Z,1018.03
2017-10-13T01:27:25.093Z,1018.10
2017-10-13T01:28:25.521Z,1018.10
2017-10-13T01:29:25.951Z,1018.10
2017-10-13T01:30:26.380Z,1018.14
2017-10-13T01:31:26.808Z,1018.21
2017-10-13T01:32:27.238Z,1018.16
2017-10-13T01:33:27.665Z,1018.20
2017-10-13T01:34:28.104Z,1018.23
2017-10-13T01:35:28.524Z,1018.20
2017-10-13T01:36:28.953Z,1018.17
2017-10-13T01:37:29.386Z,1018.21
2017-10-13T01:38:29.808Z,1018.20
2017-10-13T01:39:30.238Z,1018.20
2017-10-13T01:40:30.669Z,1018.16
2017-10-13T01:41:31.096Z,1018.14
2017-10-13T01:42:31.524Z,1018.15
2017-10-13T01:43:31.957Z,1018.10
2017-10-13T01:44:32.383Z,1018.15
2017-10-13T01:45:32.817Z,1018.10
2017-10-13T01:46:33.241Z,1018.10
2017-10-13T01:47:33.673Z,1018.13
2017-10-13T01:48:34.100Z,1018.08
2017-10-13T01:49:34.528Z,1018.05
2017-10-13T01:50:34.958Z,1018.10
2017-10-13T01:51:35.385Z,1018.16
2017-10-13T01:52:35.818Z,1018.08
2017-10-13T01:53:36.246Z,1018.14
2017-10-13T01:54:36.674Z,1018.15
2017-10-13T01:55:37.101Z,1018.08
2017-10-13T01:56:37.529Z,1018.14
2017-10-13T01:57:37.956Z,1018.06
2017-10-13T01:58:38.386Z,1018.08
2017-10-13T01:59:38.815Z,1018.10
2017-10-13T02:00:39.245Z,1018.16
2017-10-13T02:01:39.676Z,1018.22
2017-10-13T02:02:40.102Z,1018.19
2017-10-13T02:03:40.530Z,1018.11
2017-10-13T02:04:40.967Z,1018.15
2017-10-13T02:05:41.390Z,1018.18
2017-10-13T02:06:41.825Z,1018.18
2017-10-13T02:07:42.249Z,1018.22
2017-10-13T02:08:42.675Z,1018.30
2017-10-13T02:09:43.110Z,1018.33
2017-10-13T02:10:43.535Z,1018.32
2017-10-13T02:11:43.962Z,1018.35
2017-10-13T02:12:44.388Z,1018.34
2017-10-13T02:13:44.849Z,1018.37
2017-10-13T02:14:45.247Z,1018.40
2017-10-13T02:15:45.677Z,1018.38
2017-10-13T02:16:46.104Z,1018.36
2017-10-13T02:17:46.537Z,1018.35
2017-10-13T02:18:46.964Z,1018.37
2017-10-13T02:19:47.393Z,1018.41
2017-10-13T02:20:47.823Z,1018.44
2017-10-13T02:21:48.249Z,1018.45
2017-10-13T02:22:48.677Z,1018.48
2017-10-13T02:23:49.108Z,1018.47
2017-10-13T02:24:49.533Z,1018.45
2017-10-13T02:25:49.963Z,1018.41
2017-10-13T02:26:50.394Z,1018.41
2017-10-13T02:27:50.823Z,1018.43
2017-10-13T02:28:51.250Z,1018.43
2017-10-13T02:29:51.680Z,1018.44
2017-10-13T02:30:52.111Z,1018.40
2017-10-13T02:31:52.535Z,1018.40
2017-10-13T02:32:52.963Z,1018.39
2017-10-13T02:33:53.395Z,1018.36
2017-10-13T02:34:53.826Z,1018.34
2017-10-13T02:35:54.252Z,1018.37
2017-10-13T02:36:54.679Z,1018.38
2017-10-13T02:37:55.110Z,1018.33
2017-10-13T02:38:55.540Z,1018.44
2017-10-13T02:39:55.967Z,1018.42
2017-10-13T02:40:56.395Z,1018.36
2017-10-13T02:41:56.825Z,1018.43
2017-10-13T02:42:57.255Z,1018.38
2017-10-13T02:43:57.689Z,1018.44
2017-10-13T02:44:58.107Z,1018.45
2017-10-13T02:45:58.537Z,1018.53
2017-10-13T02:47:01.791Z,1018.48
2017-10-13T02:47:59.400Z,1018.45
2017-10-13T02:48:59.830Z,1018.48
2017-10-13T02:50:00.252Z,1018.45
2017-10-13T02:51:00.680Z,1018.46
2017-10-13T02:52:01.108Z,1018.44
2017-10-13T02:53:01.537Z,1018.42
2017-10-13T02:54:01.966Z,1018.47
2017-10-13T02:55:02.398Z,1018.47
2017-10-13T02:56:02.839Z,1018.52
2017-10-13T02:57:03.253Z,1018.50
2017-10-13T02:58:03.681Z,1018.50
2017-10-13T02:59:04.116Z,1018.50
2017-10-13T03:00:04.544Z,1018.45
2017-10-13T03:01:04.968Z,1018.52
2017-10-13T03:02:05.396Z,1018.51
2017-10-13T03:03:05.828Z,1018.50
2017-10-13T03:04:06.257Z,1018.49
2017-10-13T03:05:06.685Z,1018.54
2017-10-13T03:06:07.114Z,1018.56
2017-10-13T03:07:07.542Z,1018.55
2017-10-13T03:08:07.973Z,1018.63
2017-10-13T03:09:08.399Z,1018.58
2017-10-13T03:10:08.830Z,1018.56
2017-10-13T03:11:09.260Z,1018.61
2017-10-13T03:12:09.687Z,1018.63
2017-10-13T03:13:10.122Z,1018.62
2017-10-13T03:14:10.546Z,1018.66
2017-10-13T03:15:10.977Z,1018.65
2017-10-13T03:16:11.403Z,1018.66
2017-10-13T03:17:11.838Z,1018.71
2017-10-13T03:18:12.264Z,1018.69
2017-10-13T03:19:12.694Z,1018.66
2017-10-13T03:20:13.119Z,1018.68
2017-10-13T03:21:13.548Z,1018.67
2017-10-13T03:22:13.976Z,1018.71
2017-10-13T03:23:14.408Z,1018.74
2017-10-13T03:24:14.836Z,1018.72
2017-10-13T03:25:15.264Z,1018.76
2017-10-13T03:26:15.692Z,1018.80
2017-10-13T03:27:16.122Z,1018.78
2017-10-13T03:28:16.551Z,1018.82
2017-10-13T03:29:16.982Z,1018.86
2017-10-13T03:30:17.412Z,1018.81
2017-10-13T03:31:17.839Z,1018.81
2017-10-13T03:32:18.270Z,1018.76
2017-10-13T03:33:18.693Z,1018.83
2017-10-13T03:34:19.128Z,1018.84
2017-10-13T03:35:19.552Z,1018.83
2017-10-13T03:36:19.982Z,1018.84
2017-10-13T03:37:20.413Z,1018.86
2017-10-13T03:38:20.839Z,1018.89
2017-10-13T03:39:21.270Z,1018.79
2017-10-13T03:40:21.696Z,1018.89
2017-10-13T03:41:22.126Z,1018.93
2017-10-13T03:42:22.554Z,1018.95
2017-10-13T03:43:22.983Z,1018.90
2017-10-13T03:44:23.410Z,1018.99
2017-10-13T03:45:23.839Z,1019.02
2017-10-13T03:46:24.270Z,1018.95
2017-10-13T03:47:24.717Z,1019.00
2017-10-13T03:48:25.140Z,1018.95
2017-10-13T03:49:25.555Z,1018.92
2017-10-13T03:50:25.981Z,1018.92
2017-10-13T03:51:26.414Z,1018.94
2017-10-13T03:52:26.838Z,1018.91
2017-10-13T03:53:27.266Z,1018.88
2017-10-13T03:54:27.702Z,1018.92
2017-10-13T03:55:28.124Z,1018.89
2017-10-13T03:56:28.566Z,1018.89
2017-10-13T03:57:28.985Z,1018.89
2017-10-13T03:58:29.411Z,1018.91
2017-10-13T03:59:29.841Z,1018.95
2017-10-13T04:00:30.268Z,1018.95
2017-10-13T04:01:30.696Z,1018.96
2017-10-13T04:02:31.127Z,1018.98
2017-10-13T04:03:31.555Z,1018.95
2017-10-13T04:04:31.982Z,1019.00
2017-10-13T04:05:32.428Z,1018.98
2017-10-13T04:06:32.841Z,1019.01
2017-10-13T04:07:33.267Z,1018.99
2017-10-13T04:08:33.696Z,1019.01
2017-10-13T04:09:34.125Z,1019.01
2017-10-13T04:10:34.558Z,1019.00
2017-10-13T04:11:34.982Z,1019.01
2017-10-13T04:12:35.430Z,1019.02
2017-10-13T04:13:35.842Z,1019.02
2017-10-13T04:14:36.268Z,1019.03
2017-10-13T04:15:36.699Z,1018.99
2017-10-13T04:16:37.134Z,1018.98
2017-10-13T04:17:37.554Z,1018.99
2017-10-13T04:18:37.982Z,1019.02
2017-10-13T04:19:38.411Z,1019.05
2017-10-13T04:20:38.841Z,1019.10
2017-10-13T04:21:39.284Z,1019.11
2017-10-13T04:22:39.696Z,1019.14
2017-10-13T04:23:40.138Z,1019.13
2017-10-13T04:24:40.554Z,1019.20
2017-10-13T04:25:40.982Z,1019.18
2017-10-13T04:26:41.417Z,1019.13
2017-10-13T04:27:41.852Z,1019.19
2017-10-13T04:28:42.269Z,1019.17
2017-10-13T04:29:42.694Z,1019.20
2017-10-13T04:30:43.124Z,1019.20
2017-10-13T04:31:43.553Z,1019.16
2017-10-13T04:32:43.983Z,1019.17
2017-10-13T04:33:44.411Z,1019.17
2017-10-13T04:34:44.840Z,1019.10
2017-10-13T04:35:45.274Z,1019.17
2017-10-13T04:36:45.696Z,1019.16
2017-10-13T04:37:46.123Z,1019.23
2017-10-13T04:38:46.553Z,1019.16
2017-10-13T04:39:46.982Z,1019.22
2017-10-13T04:40:47.410Z,1019.23
2017-10-13T04:41:47.849Z,1019.25
2017-10-13T04:42:48.268Z,1019.27
2017-10-13T04:43:48.696Z,1019.33
2017-10-13T04:44:49.125Z,1019.31
2017-10-13T04:45:49.560Z,1019.25
2017-10-13T04:46:49.983Z,1019.27
2017-10-13T04:47:50.412Z,1019.27
2017-10-13T04:48:50.837Z,1019.22
2017-10-13T04:49:51.266Z,1019.24
2017-10-13T04:50:51.695Z,1019.24
2017-10-13T04:51:52.127Z,1019.22
2017-10-13T04:52:52.552Z,1019.24
2017-10-13T04:53:52.979Z,1019.28
2017-10-13T04:54:53.408Z,1019.25
2017-10-13T04:55:53.841Z,1019.28
2017-10-13T04:56:56.828Z,1019.28
2017-10-13T04:57:54.692Z,1019.30
2017-10-13T04:58:55.121Z,1019.30
2017-10-13T04:59:55.548Z,1019.29
2017-10-13T05:00:55.976Z,1019.30
2017-10-13T05:01:56.406Z,1019.34
2017-10-13T05:02:56.835Z,1019.26
2017-10-13T05:03:57.260Z,1019.23
2017-10-13T05:04:57.691Z,1019.24
2017-10-13T05:05:58.119Z,1019.18
2017-10-13T05:06:58.540Z,1019.25
2017-10-13T05:07:58.967Z,1019.26
2017-10-13T05:08:59.403Z,1019.27
2017-10-13T05:09:59.832Z,1019.26
2017-10-13T05:11:00.254Z,1019.26
2017-10-13T05:12:00.679Z,1019.26
2017-10-13T05:13:01.111Z,1019.24
2017-10-13T05:14:01.538Z,1019.29
2017-10-13T05:15:01.963Z,1019.37
2017-10-13T05:16:02.390Z,1019.32
2017-10-13T05:17:02.826Z,1019.32
2017-10-13T05:18:03.246Z,1019.33
2017-10-13T05:19:03.675Z,1019.36
2017-10-13T05:20:04.102Z,1019.35
2017-10-13T05:21:04.531Z,1019.32
2017-10-13T05:22:04.960Z,1019.31
2017-10-13T05:23:05.389Z,1019.33
2017-10-13T05:24:05.816Z,1019.32
2017-10-13T05:25:06.248Z,1019.34
2017-10-13T05:26:06.674Z,1019.33
2017-10-13T05:27:07.106Z,1019.36
2017-10-13T05:28:07.528Z,1019.31
2017-10-13T05:29:07.959Z,1019.40
2017-10-13T05:30:08.396Z,1019.39
2017-10-13T05:31:08.823Z,1019.32
2017-10-13T05:32:09.244Z,1019.40
2017-10-13T05:33:09.669Z,1019.34
2017-10-13T05:34:10.102Z,1019.43
2017-10-13T05:35:10.525Z,1019.38
2017-10-13T05:36:10.954Z,1019.40
2017-10-13T05:37:11.384Z,1019.39
2017-10-13T05:38:11.809Z,1019.42
2017-10-13T05:39:12.240Z,1019.43
2017-10-13T05:40:12.670Z,1019.45
2017-10-13T05:41:13.094Z,1019.44
2017-10-13T05:42:13.523Z,1019.42
2017-10-13T05:43:13.950Z,1019.45
2017-10-13T05:44:14.387Z,1019.43
2017-10-13T05:45:14.808Z,1019.46
2017-10-13T05:46:15.234Z,1019.47
2017-10-13T05:47:15.665Z,1019.57
2017-10-13T05:48:16.098Z,1019.57
2017-10-13T05:49:16.521Z,1019.57
2017-10-13T05:50:16.946Z,1019.57
2017-10-13T05:51:17.378Z,1019.61
2017-10-13T05:52:17.806Z,1019.62
2017-10-13T05:53:18.233Z,1019.64
2017-10-13T05:54:18.663Z,1019.61
2017-10-13T05:55:19.089Z,1019.61
2017-10-13T05:56:19.524Z,1019.60
2017-10-13T05:57:19.948Z,1019.57
2017-10-13T05:58:20.373Z,1019.57
2017-10-13T05:59:20.806Z,1019.55
2017-10-13T06:00:21.235Z,1019.53
2017-10-13T06:01:21.662Z,1019.56
2017-10-13T06:02:22.087Z,1019.57
2017-10-13T06:03:22.517Z,1019.57
2017-10-13T06:04:22.950Z,1019.60
2017-10-13T06:05:23.374Z,1019.58
2017-10-13T06:06:23.806Z,1019.60
2017-10-13T06:07:24.232Z,1019.63
2017-10-13T06:08:24.664Z,1019.61
2017-10-13T06:09:25.104Z,1019.66
2017-10-13T06:10:25.521Z,1019.65
2017-10-13T06:11:25.968Z,1019.59
2017-10-13T06:12:26.374Z,1019.61
2017-10-13T06:13:26.801Z,1019.59
2017-10-13T06:14:27.233Z,1019.62
2017-10-13T06:15:27.659Z,1019.56
2017-10-13T06:16:28.090Z,1019.59
2017-10-13T06:17:28.517Z,1019.59
2017-10-13T06:18:28.947Z,1019.62
2017-10-13T06:19:29.375Z,1019.57
2017-10-13T06:20:29.803Z,1019.55
2017-10-13T06:21:30.232Z,1019.56
2017-10-13T06:22:30.736Z,1019.59
2017-10-13T06:23:31.092Z,1019.58
2017-10-13T06:24:31.520Z,1019.59
2017-10-13T06:25:31.948Z,1019.53
2017-10-13T06:26:32.378Z,1019.57
2017-10-13T06:27:32.807Z,1019.56
2017-10-13T06:28:33.238Z,1019.57
2017-10-13T06:29:33.664Z,1019.54
2017-10-13T06:30:34.094Z,1019.56
2017-10-13T06:31:34.520Z,1019.57
2017-10-13T06:32:34.952Z,1019.57
2017-10-13T06:33:35.379Z,1019.64
2017-10-13T06:34:35.811Z,1019.65
2017-10-13T06:35:36.237Z,1019.73
2017-10-13T06:36:36.689Z,1019.69
2017-10-13T06:37:37.100Z,1019.71
2017-10-13T06:38:37.531Z,1019.70
2017-10-13T06:39:37.956Z,1019.72
2017-10-13T06:40:38.386Z,1019.73
2017-10-13T06:41:38.813Z,1019.69
2017-10-13T06:42:39.250Z,1019.69
2017-10-13T06:43:39.670Z,1019.69
2017-10-13T06:44:40.101Z,1019.70
2017-10-13T06:45:40.536Z,1019.61
2017-10-13T06:46:40.960Z,1019.67
2017-10-13T06:47:41.388Z,1019.62
2017-10-13T06:48:41.820Z,1019.63
2017-10-13T06:49:42.250Z,1019.61
2017-10-13T06:50:42.674Z,1019.58
2017-10-13T06:51:43.107Z,1019.62
2017-10-13T06:52:43.535Z,1019.63
2017-10-13T06:53:43.964Z,1019.62
2017-10-13T06:54:44.394Z,1019.67
2017-10-13T06:55:44.823Z,1019.65
2017-10-13T06:56:45.261Z,1019.64
2017-10-13T06:57:45.682Z,1019.61
2017-10-13T06:58:46.111Z,1019.61
2017-10-13T06:59:46.539Z,1019.59
2017-10-13T07:00:46.969Z,1019.61
2017-10-13T07:01:47.400Z,1019.64
2017-10-13T07:02:47.840Z,1019.65
2017-10-13T07:03:48.256Z,1019.69
2017-10-13T07:04:48.689Z,1019.73
2017-10-13T07:05:49.118Z,1019.73
2017-10-13T07:06:49.568Z,1019.77
2017-10-13T07:07:49.976Z,1019.81
2017-10-13T07:08:50.408Z,1019.84
2017-10-13T07:09:50.835Z,1019.85
2017-10-13T07:10:51.263Z,1019.82
2017-10-13T07:11:51.695Z,1019.89
2017-10-13T07:12:52.136Z,1019.85
2017-10-13T07:13:52.553Z,1019.88
2017-10-13T07:14:52.985Z,1019.95
2017-10-13T07:15:53.414Z,1019.97
2017-10-13T07:16:53.845Z,1019.96
2017-10-13T07:17:54.275Z,1019.95
2017-10-13T07:18:54.710Z,1020.00
2017-10-13T07:19:55.129Z,1019.98
2017-10-13T07:20:55.570Z,1019.96
2017-10-13T07:21:55.993Z,1019.97
2017-10-13T07:22:56.425Z,1019.97
2017-10-13T07:23:56.851Z,1019.94
2017-10-13T07:24:57.287Z,1019.94
2017-10-13T07:25:57.713Z,1019.93
2017-10-13T07:26:58.159Z,1019.98
2017-10-13T07:27:58.576Z,1019.99
2017-10-13T07:28:59.004Z,1020.01
2017-10-13T07:29:59.432Z,1019.99
2017-10-13T07:30:59.866Z,1020.09
2017-10-13T07:32:00.294Z,1020.11
2017-10-13T07:33:00.729Z,1020.09
2017-10-13T07:34:01.155Z,1020.11
2017-10-13T07:35:01.592Z,1020.12
2017-10-13T07:36:02.022Z,1020.18
2017-10-13T07:37:02.452Z,1020.18
2017-10-13T07:38:02.883Z,1020.15
2017-10-13T07:39:03.305Z,1020.16
2017-10-13T07:40:03.740Z,1020.18
2017-10-13T07:41:04.168Z,1020.17
2017-10-13T07:42:04.622Z,1020.23
2017-10-13T07:43:05.028Z,1020.14
2017-10-13T07:44:05.462Z,1020.14
2017-10-13T07:45:05.892Z,1020.22
2017-10-13T07:46:06.327Z,1020.16
2017-10-13T07:47:06.761Z,1020.16
2017-10-13T07:48:07.186Z,1020.12
2017-10-13T07:49:07.619Z,1020.18
2017-10-13T07:50:08.051Z,1020.13
2017-10-13T07:51:08.478Z,1020.15
2017-10-13T07:52:08.921Z,1020.14
2017-10-13T07:53:09.351Z,1020.17
2017-10-13T07:54:09.779Z,1020.11
2017-10-13T07:55:10.211Z,1020.10
2017-10-13T07:56:10.649Z,1020.09
2017-10-13T07:57:11.076Z,1020.11
2017-10-13T07:58:11.503Z,1020.13
2017-10-13T07:59:13.883Z,1020.12
2017-10-13T08:00:12.374Z,1020.16
2017-10-13T08:01:12.810Z,1020.13
2017-10-13T08:02:16.886Z,1020.17
2017-10-13T08:03:13.675Z,1020.17
2017-10-13T08:04:14.100Z,1020.21
2017-10-13T08:05:14.537Z,1020.14
2017-10-13T08:06:14.967Z,1020.16
2017-10-13T08:07:15.398Z,1020.09
2017-10-13T08:08:15.835Z,1020.13
2017-10-13T08:09:16.268Z,1020.18
2017-10-13T08:10:16.700Z,1020.15
2017-10-13T08:11:17.136Z,1020.16
2017-10-13T08:12:17.567Z,1020.16
2017-10-13T08:13:18.004Z,1020.13
2017-10-13T08:14:18.436Z,1020.19
2017-10-13T08:15:18.875Z,1020.18
2017-10-13T08:16:19.305Z,1020.11
2017-10-13T08:17:19.740Z,1020.15
2017-10-13T08:18:20.175Z,1020.18
2017-10-13T08:19:20.611Z,1020.19
2017-10-13T08:20:21.049Z,1020.15
2017-10-13T08:21:21.481Z,1020.24
2017-10-13T08:22:21.922Z,1020.23
2017-10-13T08:23:22.353Z,1020.21
2017-10-13T08:24:22.784Z,1020.22
2017-10-13T08:25:23.216Z,1020.19
2017-10-13T08:26:23.654Z,1020.21
2017-10-13T08:27:24.088Z,1020.28
2017-10-13T08:28:24.526Z,1020.20
2017-10-13T08:29:24.960Z,1020.15
2017-10-13T08:30:25.400Z,1020.16
2017-10-13T08:31:25.832Z,1020.14
2017-10-13T08:32:26.269Z,1020.18
2017-10-13T08:33:26.707Z,1020.17
2017-10-13T08:34:27.142Z,1020.23
2017-10-13T08:35:27.585Z,1020.20
2017-10-13T08:36:28.017Z,1020.21
2017-10-13T08:37:28.453Z,1020.23
2017-10-13T08:38:28.892Z,1020.30
2017-10-13T08:39:29.328Z,1020.34
2017-10-13T08:40:29.779Z,1020.34
2017-10-13T08:41:30.206Z,1020.27
2017-10-13T08:42:30.645Z,1020.28
2017-10-13T08:43:31.082Z,1020.31
2017-10-13T08:44:31.523Z,1020.28
2017-10-13T08:45:31.963Z,1020.29
2017-10-13T08:46:32.403Z,1020.26
2017-10-13T08:47:32.837Z,1020.29
2017-10-13T08:48:33.278Z,1020.29
2017-10-13T08:49:33.717Z,1020.27
2017-10-13T08:50:34.157Z,1020.26
2017-10-13T08:51:34.591Z,1020.21
2017-10-13T08:52:35.037Z,1020.30
2017-10-13T08:53:35.474Z,1020.30
2017-10-13T08:54:35.917Z,1020.27
2017-10-13T08:55:36.357Z,1020.27
2017-10-13T08:56:36.800Z,1020.30
2017-10-13T08:57:37.236Z,1020.23
2017-10-13T08:58:37.678Z,1020.27
2017-10-13T08:59:38.117Z,1020.25
2017-10-13T09:00:38.561Z,1020.26
2017-10-13T09:01:39.002Z,1020.34
2017-10-13T09:02:39.444Z,1020.31
2017-10-13T09:03:39.886Z,1020.26
2017-10-13T09:04:40.334Z,1020.23
2017-10-13T09:05:40.768Z,1020.26
2017-10-13T09:06:41.229Z,1020.20
2017-10-13T09:07:41.657Z,1020.25
2017-10-13T09:08:42.097Z,1020.27
2017-10-13T09:09:42.551Z,1020.25
2017-10-13T09:10:42.984Z,1020.27
2017-10-13T09:11:43.426Z,1020.30
2017-10-13T09:12:43.868Z,1020.31
2017-10-13T09:13:44.311Z,1020.32
2017-10-13T09:14:44.761Z,1020.38
2017-10-13T09:15:45.200Z,1020.39
2017-10-13T09:16:45.643Z,1020.36
2017-10-13T09:17:46.086Z,1020.31
2017-10-13T09:18:46.524Z,1020.40
2017-10-13T09:19:46.964Z,1020.33
2017-10-13T09:20:47.409Z,1020.23
2017-10-13T09:21:47.850Z,1020.32
2017-10-13T09:22:48.294Z,1020.31
2017-10-13T09:23:48.749Z,1020.24
2017-10-13T09:24:49.171Z,1020.23
2017-10-13T09:25:49.613Z,1020.24
2017-10-13T09:26:50.055Z,1020.21
2017-10-13T09:27:50.505Z,1020.25
2017-10-13T09:28:50.934Z,1020.23
2017-10-13T09:29:51.374Z,1020.17
2017-10-13T09:30:51.821Z,1020.18
2017-10-13T09:31:52.249Z,1020.20
2017-10-13T09:32:52.695Z,1020.25
2017-10-13T09:33:53.140Z,1020.26
2017-10-13T09:34:53.581Z,1020.17
2017-10-13T09:35:54.054Z,1020.23
2017-10-13T09:36:54.462Z,1020.19
2017-10-13T09:37:54.912Z,1020.23
2017-10-13T09:38:55.353Z,1020.20
2017-10-13T09:39:55.797Z,1020.22
2017-10-13T09:40:56.243Z,1020.27
2017-10-13T09:41:56.687Z,1020.23
2017-10-13T09:42:57.136Z,1020.25
2017-10-13T09:43:57.577Z,1020.28
2017-10-13T09:44:58.024Z,1020.33
2017-10-13T09:45:58.468Z,1020.32
2017-10-13T09:46:58.918Z,1020.33
2017-10-13T09:47:59.360Z,1020.35
2017-10-13T09:48:59.817Z,1020.39
2017-10-13T09:50:00.254Z,1020.42
2017-10-13T09:51:00.701Z,1020.41
2017-10-13T09:52:01.143Z,1020.39
2017-10-13T09:53:01.587Z,1020.38
2017-10-13T09:54:02.040Z,1020.42
2017-10-13T09:55:02.482Z,1020.39
2017-10-13T09:56:02.927Z,1020.38
2017-10-13T09:57:03.378Z,1020.35
2017-10-13T09:58:03.810Z,1020.34
2017-10-13T09:59:04.253Z,1020.30
2017-10-13T10:00:04.695Z,1020.30
2017-10-13T10:01:05.141Z,1020.28
2017-10-13T10:02:05.587Z,1020.31
2017-10-13T10:03:06.028Z,1020.29
2017-10-13T10:04:06.469Z,1020.35
2017-10-13T10:05:06.916Z,1020.30
2017-10-13T10:06:07.355Z,1020.31
2017-10-13T10:07:07.799Z,1020.31
2017-10-13T10:08:08.248Z,1020.29
2017-10-13T10:09:08.686Z,1020.31
2017-10-13T10:10:09.136Z,1020.35
2017-10-13T10:11:09.580Z,1020.37
2017-10-13T10:12:10.021Z,1020.35
2017-10-13T10:13:10.467Z,1020.34
2017-10-13T10:14:10.910Z,1020.37
2017-10-13T10:15:11.356Z,1020.36
2017-10-13T10:16:11.802Z,1020.30
2017-10-13T10:17:12.250Z,1020.28
2017-10-13T10:18:12.702Z,1020.28
2017-10-13T10:19:13.140Z,1020.31
2017-10-13T10:20:13.586Z,1020.30
2017-10-13T10:21:14.038Z,1020.25
2017-10-13T10:22:14.477Z,1020.25
2017-10-13T10:23:14.941Z,1020.23
2017-10-13T10:24:15.372Z,1020.25
2017-10-13T10:25:15.818Z,1020.28
2017-10-13T10:26:16.259Z,1020.28
2017-10-13T10:27:16.709Z,1020.32
2017-10-13T10:28:17.151Z,1020.37
2017-10-13T10:29:17.598Z,1020.33
2017-10-13T10:30:18.045Z,1020.33
2017-10-13T10:31:18.491Z,1020.33
2017-10-13T10:32:18.930Z,1020.31
2017-10-13T10:33:19.377Z,1020.32
2017-10-13T10:34:19.821Z,1020.37
2017-10-13T10:35:20.267Z,1020.44
2017-10-13T10:36:20.702Z,1020.37
2017-10-13T10:37:21.150Z,1020.38
2017-10-13T10:38:21.602Z,1020.37
2017-10-13T10:39:22.031Z,1020.34
2017-10-13T10:40:22.476Z,1020.41
2017-10-13T10:41:22.915Z,1020.40
2017-10-13T10:42:23.357Z,1020.41
2017-10-13T10:43:23.795Z,1020.41
2017-10-13T10:44:24.238Z,1020.41
2017-10-13T10:45:24.672Z,1020.35
2017-10-13T10:46:25.111Z,1020.34
2017-10-13T10:47:25.551Z,1020.34
2017-10-13T10:48:25.995Z,1020.37
2017-10-13T10:49:26.430Z,1020.38
2017-10-13T10:50:26.874Z,1020.37
2017-10-13T10:51:27.325Z,1020.42
2017-10-13T10:52:27.780Z,1020.43
2017-10-13T10:53:28.231Z,1020.43
2017-10-13T10:54:28.626Z,1020.39
2017-10-13T10:55:29.061Z,1020.38
2017-10-13T10:56:29.500Z,1020.41
2017-10-13T10:57:29.943Z,1020.35
2017-10-13T10:58:30.378Z,1020.34
2017-10-13T10:59:30.813Z,1020.35
2017-10-13T11:00:31.252Z,1020.30
2017-10-13T11:01:32.739Z,1020.40
2017-10-13T11:02:32.121Z,1020.41
2017-10-13T11:03:32.569Z,1020.41
2017-10-13T11:04:33.004Z,1020.40
2017-10-13T11:05:33.443Z,1020.37
2017-10-13T11:06:33.883Z,1020.31
2017-10-13T11:07:34.342Z,1020.32
2017-10-13T11:08:34.795Z,1020.31
2017-10-13T11:09:35.209Z,1020.28
2017-10-13T11:10:35.637Z,1020.28
2017-10-13T11:11:36.074Z,1020.29
2017-10-13T11:12:36.511Z,1020.28
2017-10-13T11:13:36.953Z,1020.27
2017-10-13T11:14:37.403Z,1020.28
2017-10-13T11:15:37.827Z,1020.27
2017-10-13T11:16:38.277Z,1020.29
2017-10-13T11:17:38.762Z,1020.33
2017-10-13T11:18:39.143Z,1020.34
2017-10-13T11:19:39.579Z,1020.32
2017-10-13T11:20:40.020Z,1020.38
2017-10-13T11:21:40.460Z,1020.26
2017-10-13T11:22:40.898Z,1020.24
2017-10-13T11:23:41.337Z,1020.21
2017-10-13T11:24:41.777Z,1020.24
2017-10-13T11:25:42.219Z,1020.27
2017-10-13T11:26:42.658Z,1020.27
2017-10-13T11:27:43.092Z,1020.24
2017-10-13T11:28:43.531Z,1020.27
2017-10-13T11:29:43.975Z,1020.22
2017-10-13T11:30:44.413Z,1020.29
2017-10-13T11:31:44.856Z,1020.24
2017-10-13T11:32:45.293Z,1020.32
2017-10-13T11:33:45.738Z,1020.32
2017-10-13T11:34:46.180Z,1020.28
2017-10-13T11:35:46.614Z,1020.30
2017-10-13T11:36:47.068Z,1020.30
2017-10-13T11:37:47.497Z,1020.30
2017-10-13T11:38:47.936Z,1020.28
2017-10-13T11:39:48.379Z,1020.30
2017-10-13T11:40:48.813Z,1020.26
2017-10-13T11:41:49.248Z,1020.27
2017-10-13T11:42:49.694Z,1020.23
2017-10-13T11:43:50.137Z,1020.24
2017-10-13T11:44:50.572Z,1020.27
2017-10-13T11:45:51.004Z,1020.28
2017-10-13T11:46:51.447Z,1020.25
2017-10-13T11:47:51.887Z,1020.27
2017-10-13T11:48:52.325Z,1020.23
2017-10-13T11:49:52.763Z,1020.23
2017-10-13T11:50:53.201Z,1020.17
2017-10-13T11:51:53.644Z,1020.19
2017-10-13T11:52:54.079Z,1020.21
2017-10-13T11:53:54.522Z,1020.20
2017-10-13T11:54:54.958Z,1020.18
2017-10-13T11:55:55.399Z,1020.20
2017-10-13T11:56:55.840Z,1020.18
2017-10-13T11:57:56.280Z,1020.20
2017-10-13T11:58:56.711Z,1020.18
2017-10-13T11:59:57.155Z,1020.29
2017-10-13T12:00:57.591Z,1020.26
2017-10-13T12:01:58.036Z,1020.24
2017-10-13T12:02:58.469Z,1020.29
2017-10-13T12:03:58.908Z,1020.24
2017-10-13T12:04:59.346Z,1020.31
2017-10-13T12:05:59.784Z,1020.31
2017-10-13T12:07:00.228Z,1020.36
2017-10-13T12:08:00.662Z,1020.42
2017-10-13T12:09:01.098Z,1020.42
2017-10-13T12:10:01.547Z,1020.40
2017-10-13T12:11:01.978Z,1020.44